Time;durP1;ratioP1;P1;durP2;ratioP2;P2;SDS_P1;SDS_P2;PMS_P1;PMS_P2;Temp;Humidity;BMP_temperature;BMP_pressure;BME280_temperature;BME280_humidity;BME280_pressure;Samples;Min_cycle;Max_cycle;Signal;HPM_P1;HPM_P2
2023/08/27 00:01:15;;;;;;;15.80;13.63;;;13.90;99.90;;;;;;4966102;28;20042;-61
2023/08/27 00:03:40;;;;;;;14.90;13.40;;;14.00;99.90;;;;;;4966238;28;20078;-59
2023/08/27 00:06:06;;;;;;;14.80;12.70;;;13.90;99.90;;;;;;4966521;28;20050;-58
2023/08/27 00:08:32;;;;;;;14.95;13.45;;;13.90;99.90;;;;;;4966702;28;20046;-63
2023/08/27 00:11:01;;;;;;;15.63;14.00;;;13.90;99.90;;;;;;4965987;28;20050;-63
2023/08/27 00:13:27;;;;;;;15.15;13.45;;;14.10;99.90;;;;;;4964042;28;20105;-63
2023/08/27 00:15:53;;;;;;;14.68;13.18;;;13.90;99.90;;;;;;4965181;28;20093;-63
2023/08/27 00:18:18;;;;;;;15.10;13.50;;;13.90;99.90;;;;;;4981191;28;20125;-55
2023/08/27 00:20:48;;;;;;;14.27;12.85;;;13.80;99.90;;;;;;4967489;28;20588;-58
2023/08/27 00:23:14;;;;;;;15.23;13.68;;;13.80;99.90;;;;;;4977636;28;20043;-56
2023/08/27 00:25:42;;;;;;;16.33;14.63;;;13.80;99.90;;;;;;4985029;28;20437;-63
2023/08/27 00:28:08;;;;;;;15.60;13.98;;;13.80;99.90;;;;;;4985773;28;20214;-55
2023/08/27 00:30:33;;;;;;;15.88;14.30;;;13.70;99.90;;;;;;4982958;28;20144;-63
2023/08/27 00:32:59;;;;;;;15.95;14.45;;;13.70;99.90;;;;;;4985134;28;20100;-57
2023/08/27 00:35:24;;;;;;;15.98;14.38;;;13.80;99.90;;;;;;4985143;28;20073;-51
2023/08/27 00:37:50;;;;;;;16.40;14.73;;;13.70;99.90;;;;;;4984601;28;20485;-57
2023/08/27 00:40:16;;;;;;;15.63;14.10;;;13.70;99.90;;;;;;4984461;28;20038;-63
2023/08/27 00:42:42;;;;;;;16.05;14.43;;;13.70;99.90;;;;;;4984963;28;20636;-58
2023/08/27 00:45:08;;;;;;;16.95;15.35;;;13.80;99.90;;;;;;4985082;28;20046;-60
2023/08/27 00:47:37;;;;;;;15.52;13.98;;;13.70;99.90;;;;;;4985054;28;20050;-60
2023/08/27 00:50:06;;;;;;;16.02;14.32;;;13.70;99.90;;;;;;4985682;28;20034;-59
2023/08/27 00:52:32;;;;;;;15.43;13.82;;;13.70;99.90;;;;;;4985404;28;20101;-59
2023/08/27 00:55:01;;;;;;;16.58;14.77;;;13.70;99.90;;;;;;4982714;28;20046;-63
2023/08/27 00:57:27;;;;;;;15.95;14.25;;;13.70;99.90;;;;;;4975510;28;20058;-60
2023/08/27 00:59:55;;;;;;;15.65;14.05;;;13.60;99.90;;;;;;4965248;28;20125;-63
2023/08/27 01:02:21;;;;;;;15.48;13.93;;;13.90;99.90;;;;;;4963423;28;20155;-62
2023/08/27 01:04:47;;;;;;;15.50;13.77;;;13.70;99.90;;;;;;4965136;28;20074;-59
2023/08/27 01:07:35;;;;;;;15.52;13.88;;;13.80;99.90;;;;;;4964702;28;20498;-56
2023/08/27 01:10:17;;;;;;;15.05;13.68;;;13.70;99.90;;;;;;4978931;28;20097;-55
2023/08/27 01:13:05;;;;;;;16.15;14.55;;;13.80;99.90;;;;;;4965260;28;20078;-59
2023/08/27 01:15:33;;;;;;;15.75;14.07;;;13.70;99.90;;;;;;4965660;28;20153;-61
2023/08/27 01:18:00;;;;;;;19.55;14.93;;;13.70;99.90;;;;;;4965422;28;20047;-64
2023/08/27 01:20:27;;;;;;;14.88;13.27;;;13.70;99.90;;;;;;4964775;28;20557;-63
2023/08/27 01:22:52;;;;;;;15.48;13.98;;;13.60;99.90;;;;;;4965434;28;20043;-57
2023/08/27 01:25:22;;;;;;;15.05;13.70;;;13.60;99.90;;;;;;4979251;28;20105;-60
2023/08/27 01:28:02;;;;;;;16.17;14.65;;;13.60;99.90;;;;;;4965810;28;20046;-57
2023/08/27 01:30:34;;;;;;;16.38;14.77;;;13.60;99.90;;;;;;4965429;28;20057;-63
2023/08/27 01:33:08;;;;;;;16.40;14.40;;;13.60;99.90;;;;;;4966274;28;20053;-58
2023/08/27 01:35:36;;;;;;;16.40;14.90;;;13.50;99.90;;;;;;4984117;28;20041;-53
2023/08/27 01:38:02;;;;;;;15.55;14.10;;;13.50;99.90;;;;;;4985192;28;20050;-60
2023/08/27 01:40:28;;;;;;;15.57;13.98;;;13.50;99.90;;;;;;4983681;28;20042;-57
2023/08/27 01:42:53;;;;;;;15.93;14.30;;;13.40;99.90;;;;;;4983798;28;20069;-53
2023/08/27 01:45:19;;;;;;;15.32;13.77;;;13.50;99.90;;;;;;4985011;28;20398;-60
2023/08/27 01:47:45;;;;;;;15.30;13.57;;;13.50;99.90;;;;;;4984865;28;20055;-63
2023/08/27 01:50:11;;;;;;;15.45;13.90;;;13.70;99.90;;;;;;4984530;28;20133;-56
2023/08/27 01:52:36;;;;;;;14.73;13.23;;;13.40;99.90;;;;;;4984510;28;20042;-59
2023/08/27 01:55:05;;;;;;;16.55;14.05;;;13.50;99.90;;;;;;4982335;28;20517;-62
2023/08/27 01:57:31;;;;;;;15.10;13.60;;;13.50;99.90;;;;;;4974318;28;20051;-63
2023/08/27 01:59:56;;;;;;;14.82;13.00;;;13.50;99.90;;;;;;4964329;28;20050;-59
2023/08/27 02:02:22;;;;;;;15.80;14.25;;;13.80;99.90;;;;;;4964494;28;20131;-60
2023/08/27 02:04:48;;;;;;;15.10;13.63;;;13.40;99.90;;;;;;4964924;28;20051;-56
2023/08/27 02:07:16;;;;;;;15.23;13.82;;;13.40;99.90;;;;;;4965174;28;20165;-58
2023/08/27 02:09:42;;;;;;;16.63;14.50;;;13.40;99.90;;;;;;4973103;28;20145;-60
2023/08/27 02:12:08;;;;;;;15.43;13.88;;;13.40;99.90;;;;;;4964630;28;20129;-63
2023/08/27 02:14:33;;;;;;;15.63;14.13;;;13.30;99.90;;;;;;4970185;28;20054;-60
2023/08/27 02:16:59;;;;;;;17.83;14.63;;;13.40;99.90;;;;;;5002963;28;20408;-59
2023/08/27 02:19:25;;;;;;;16.33;14.65;;;13.40;99.90;;;;;;5004846;28;20133;-58
2023/08/27 02:21:51;;;;;;;15.40;13.90;;;13.50;99.90;;;;;;5007271;28;20037;-62
2023/08/27 02:24:17;;;;;;;15.55;14.02;;;13.40;99.90;;;;;;5006220;28;20042;-63
2023/08/27 02:26:42;;;;;;;15.73;14.05;;;13.30;99.90;;;;;;5006090;28;20038;-59
2023/08/27 02:29:08;;;;;;;17.00;15.15;;;13.40;99.90;;;;;;5007341;28;20053;-55
2023/08/27 02:31:34;;;;;;;15.93;14.32;;;13.40;99.90;;;;;;5007581;28;20489;-61
2023/08/27 02:33:59;;;;;;;15.75;14.15;;;13.40;99.90;;;;;;5006572;28;20064;-63
2023/08/27 02:36:25;;;;;;;16.17;14.68;;;13.40;99.90;;;;;;5007009;28;20038;-63
2023/08/27 02:38:51;;;;;;;14.90;13.55;;;13.50;99.90;;;;;;5007068;28;20516;-56
2023/08/27 02:41:17;;;;;;;14.85;13.45;;;13.50;99.90;;;;;;5005876;28;20077;-59
2023/08/27 02:43:43;;;;;;;15.13;13.55;;;13.50;99.90;;;;;;5007540;28;20073;-60
2023/08/27 02:46:08;;;;;;;14.90;13.25;;;13.50;99.90;;;;;;4986623;28;20046;-62
2023/08/27 02:48:34;;;;;;;15.43;13.10;;;13.50;99.90;;;;;;4987422;28;20085;-63
2023/08/27 02:50:59;;;;;;;14.95;13.38;;;13.50;99.90;;;;;;4987050;28;20042;-60
2023/08/27 02:53:26;;;;;;;15.38;13.52;;;13.50;99.90;;;;;;4986159;28;20516;-58
2023/08/27 02:55:52;;;;;;;15.02;13.23;;;13.50;99.90;;;;;;4981068;28;20078;-62
2023/08/27 02:58:17;;;;;;;14.40;13.10;;;13.50;99.90;;;;;;4974776;28;20073;-58
2023/08/27 03:00:43;;;;;;;18.05;12.77;;;13.50;99.90;;;;;;4967772;28;20046;-61
2023/08/27 03:03:09;;;;;;;13.75;12.35;;;13.50;99.90;;;;;;4967791;28;20074;-59
2023/08/27 03:05:34;;;;;;;13.82;12.45;;;13.50;99.90;;;;;;4967077;28;20081;-62
2023/08/27 03:08:00;;;;;;;13.35;12.02;;;13.60;99.90;;;;;;4966208;28;20046;-60
2023/08/27 03:10:25;;;;;;;13.10;11.80;;;13.80;99.90;;;;;;4966271;28;20047;-63
2023/08/27 03:12:51;;;;;;;13.27;11.98;;;13.50;99.90;;;;;;4965906;28;20101;-56
2023/08/27 03:15:17;;;;;;;13.88;12.45;;;13.50;99.90;;;;;;4967201;28;20078;-57
2023/08/27 03:17:42;;;;;;;13.23;11.88;;;13.50;99.90;;;;;;4967365;28;20042;-61
2023/08/27 03:20:09;;;;;;;12.98;11.70;;;13.50;99.90;;;;;;4966586;28;20138;-63
2023/08/27 03:22:34;;;;;;;17.65;11.80;;;13.50;99.90;;;;;;4967948;28;20047;-62
2023/08/27 03:25:01;;;;;;;14.93;11.95;;;13.40;99.90;;;;;;4966395;28;20042;-57
2023/08/27 03:27:32;;;;;;;13.25;11.93;;;13.50;99.90;;;;;;4967316;28;20047;-59
2023/08/27 03:29:58;;;;;;;14.18;11.65;;;13.50;99.90;;;;;;4966706;28;20078;-54
2023/08/27 03:32:23;;;;;;;14.35;12.23;;;13.50;99.90;;;;;;4965744;28;20493;-62
2023/08/27 03:34:49;;;;;;;13.13;11.82;;;13.40;99.90;;;;;;4967883;28;20042;-63
2023/08/27 03:37:15;;;;;;;12.95;11.65;;;13.30;99.90;;;;;;4967345;28;20047;-63
2023/08/27 03:39:40;;;;;;;13.30;11.98;;;13.30;99.90;;;;;;4966767;28;20063;-61
2023/08/27 03:42:06;;;;;;;13.65;12.35;;;13.30;99.90;;;;;;4966138;28;20038;-56
2023/08/27 03:44:32;;;;;;;13.57;12.18;;;13.40;99.90;;;;;;4967224;28;20047;-63
2023/08/27 03:46:58;;;;;;;13.52;12.10;;;13.40;99.90;;;;;;4966872;28;20066;-62
2023/08/27 03:49:24;;;;;;;13.68;12.30;;;13.40;99.90;;;;;;4966348;28;20047;-61
2023/08/27 03:51:50;;;;;;;13.80;12.20;;;13.30;99.90;;;;;;4967021;28;20158;-55
2023/08/27 03:54:15;;;;;;;14.05;12.05;;;13.20;99.90;;;;;;4967088;28;20130;-59
2023/08/27 03:56:41;;;;;;;12.77;11.48;;;13.20;99.90;;;;;;4992104;28;20401;-54
2023/08/27 03:59:07;;;;;;;13.20;11.90;;;13.30;99.90;;;;;;4967375;28;20043;-63
2023/08/27 04:01:32;;;;;;;13.57;12.27;;;13.20;99.90;;;;;;4966585;28;20133;-58
2023/08/27 04:03:58;;;;;;;14.27;11.70;;;13.20;99.90;;;;;;4966859;28;20150;-53
2023/08/27 04:06:24;;;;;;;13.60;12.20;;;13.30;99.90;;;;;;4966534;28;20122;-57
2023/08/27 04:08:49;;;;;;;14.73;12.23;;;13.20;99.90;;;;;;4966250;28;20049;-63
2023/08/27 04:11:16;;;;;;;13.52;12.15;;;13.20;99.90;;;;;;4975697;28;20042;-55
2023/08/27 04:13:41;;;;;;;14.00;12.48;;;13.20;99.90;;;;;;4984063;28;20145;-56
2023/08/27 04:16:08;;;;;;;13.43;12.10;;;13.20;99.90;;;;;;4984910;28;20125;-55
2023/08/27 04:18:35;;;;;;;13.88;12.30;;;13.20;99.90;;;;;;4985685;28;20055;-55
2023/08/27 04:21:01;;;;;;;14.00;12.50;;;13.50;99.90;;;;;;4985055;28;20153;-62
2023/08/27 04:23:27;;;;;;;13.65;12.25;;;13.20;99.90;;;;;;4985123;28;20453;-54
2023/08/27 04:25:53;;;;;;;13.90;12.40;;;13.20;99.90;;;;;;4984926;28;20185;-63
2023/08/27 04:28:19;;;;;;;14.02;12.63;;;13.40;99.90;;;;;;4986125;28;20137;-55
2023/08/27 04:30:49;;;;;;;13.52;12.13;;;13.30;99.90;;;;;;4985913;28;20045;-59
2023/08/27 04:33:15;;;;;;;13.57;12.27;;;13.10;99.90;;;;;;4985005;28;20054;-57
2023/08/27 04:35:42;;;;;;;14.70;11.95;;;13.10;99.90;;;;;;4985119;28;20042;-62
2023/08/27 04:38:08;;;;;;;13.15;11.80;;;13.20;99.90;;;;;;4984027;28;20085;-63
2023/08/27 04:40:34;;;;;;;13.32;12.07;;;13.20;99.90;;;;;;4982924;28;20069;-54
2023/08/27 04:43:00;;;;;;;13.93;12.50;;;13.10;99.90;;;;;;4984853;28;20604;-62
2023/08/27 04:45:26;;;;;;;15.23;13.55;;;13.10;99.90;;;;;;4985094;28;20047;-59
2023/08/27 04:47:51;;;;;;;13.63;12.15;;;13.10;99.90;;;;;;4985705;28;20100;-60
2023/08/27 04:50:17;;;;;;;13.80;12.45;;;13.10;99.90;;;;;;4984268;28;20069;-63
2023/08/27 04:52:43;;;;;;;13.38;11.65;;;13.10;99.90;;;;;;4985310;28;20748;-63
2023/08/27 04:55:09;;;;;;;13.93;12.38;;;13.10;99.90;;;;;;4982838;28;20635;-56
2023/08/27 04:57:36;;;;;;;13.82;12.15;;;13.10;99.90;;;;;;4973035;28;20434;-54
2023/08/27 05:00:22;;;;;;;12.88;11.63;;;13.10;99.90;;;;;;4965280;28;20409;-60
2023/08/27 05:02:48;;;;;;;13.32;12.02;;;13.20;99.90;;;;;;4965382;28;20126;-56
2023/08/27 05:05:14;;;;;;;13.48;12.07;;;13.20;99.90;;;;;;4964525;28;20130;-62
2023/08/27 05:07:40;;;;;;;12.88;11.63;;;13.20;99.90;;;;;;4964835;28;20118;-63
2023/08/27 05:10:06;;;;;;;12.40;11.07;;;13.30;99.90;;;;;;4964201;28;20449;-61
2023/08/27 05:12:32;;;;;;;13.15;11.90;;;13.40;99.90;;;;;;4963856;28;20035;-58
2023/08/27 05:14:57;;;;;;;12.50;11.23;;;13.70;99.90;;;;;;4965202;28;20105;-59
2023/08/27 05:17:23;;;;;;;12.88;10.93;;;13.40;99.90;;;;;;4965322;28;20532;-58
2023/08/27 05:19:49;;;;;;;12.07;10.90;;;13.40;99.90;;;;;;4964723;28;20058;-60
2023/08/27 05:22:15;;;;;;;12.63;11.32;;;13.40;99.90;;;;;;4964470;28;20575;-60
2023/08/27 05:24:40;;;;;;;12.05;10.88;;;13.50;99.90;;;;;;4964344;28;20129;-57
2023/08/27 05:27:06;;;;;;;13.18;11.75;;;13.50;99.90;;;;;;4965537;28;20050;-61
2023/08/27 05:29:32;;;;;;;12.43;11.18;;;13.50;99.90;;;;;;4965544;28;20042;-63
2023/08/27 05:31:57;;;;;;;11.80;10.70;;;13.40;99.90;;;;;;4965785;28;20612;-62
2023/08/27 05:34:23;;;;;;;10.82;9.75;;;13.70;99.90;;;;;;4965927;28;20441;-60
2023/08/27 05:36:49;;;;;;;12.60;10.65;;;13.50;99.90;;;;;;4965555;28;20068;-56
2023/08/27 05:39:15;;;;;;;9.80;8.80;;;13.60;99.90;;;;;;4964536;28;20090;-61
2023/08/27 05:41:41;;;;;;;10.20;9.23;;;13.60;99.90;;;;;;4965389;28;20039;-62
2023/08/27 05:44:06;;;;;;;11.00;9.50;;;13.70;99.90;;;;;;4964183;28;20089;-62
2023/08/27 05:46:32;;;;;;;11.45;9.93;;;13.80;99.90;;;;;;4964878;28;20699;-56
2023/08/27 05:49:00;;;;;;;10.40;9.38;;;13.80;99.90;;;;;;4965731;28;20035;-60
2023/08/27 05:51:25;;;;;;;11.05;8.90;;;13.80;99.90;;;;;;4965342;28;20101;-61
2023/08/27 05:53:51;;;;;;;10.98;9.15;;;13.80;99.90;;;;;;4965247;28;20055;-63
2023/08/27 05:56:16;;;;;;;10.20;9.20;;;13.90;99.90;;;;;;4974672;28;20078;-61
2023/08/27 05:58:42;;;;;;;12.05;9.20;;;13.90;99.90;;;;;;4973715;28;20509;-60
2023/08/27 06:01:08;;;;;;;10.30;9.30;;;13.90;99.90;;;;;;4971087;28;20070;-60
2023/08/27 06:03:33;;;;;;;9.68;8.68;;;14.00;99.90;;;;;;4985572;28;20085;-61
2023/08/27 06:05:59;;;;;;;11.55;9.13;;;14.10;99.90;;;;;;4988282;28;20126;-64
2023/08/27 06:08:24;;;;;;;9.55;8.65;;;14.10;99.90;;;;;;4988061;28;20149;-60
2023/08/27 06:10:50;;;;;;;11.05;9.60;;;14.40;99.90;;;;;;4988863;28;20054;-59
2023/08/27 06:13:16;;;;;;;11.55;9.43;;;14.10;99.90;;;;;;4987273;28;20058;-63
2023/08/27 06:15:41;;;;;;;10.05;9.15;;;14.20;99.90;;;;;;4986062;28;20086;-64
2023/08/27 06:18:08;;;;;;;10.52;9.50;;;14.20;99.90;;;;;;4987059;28;20038;-62
2023/08/27 06:20:34;;;;;;;10.65;9.57;;;14.10;99.90;;;;;;4986808;28;20058;-56
2023/08/27 06:23:01;;;;;;;10.85;9.52;;;14.20;99.90;;;;;;4986534;28;20038;-61
2023/08/27 06:25:27;;;;;;;12.25;9.13;;;14.50;99.90;;;;;;4987552;28;20050;-57
2023/08/27 06:27:56;;;;;;;12.13;9.20;;;14.50;99.90;;;;;;4986597;28;20053;-62
2023/08/27 06:30:22;;;;;;;12.35;8.75;;;14.80;99.90;;;;;;4987672;28;20441;-63
2023/08/27 06:32:48;;;;;;;8.70;7.80;;;15.20;99.90;;;;;;4971653;28;20078;-61
2023/08/27 06:35:13;;;;;;;10.70;8.32;;;15.70;99.90;;;;;;4967629;28;20078;-62
2023/08/27 06:37:39;;;;;;;8.98;7.78;;;15.90;99.90;;;;;;4968406;28;20085;-61
2023/08/27 06:40:05;;;;;;;11.60;8.48;;;15.80;99.90;;;;;;4966938;28;20047;-62
2023/08/27 06:42:31;;;;;;;9.48;8.57;;;15.60;99.90;;;;;;4968703;28;20121;-58
2023/08/27 06:44:56;;;;;;;9.35;8.45;;;15.40;99.90;;;;;;4968222;28;20130;-59
2023/08/27 06:47:22;;;;;;;11.75;8.30;;;15.20;99.90;;;;;;4967492;28;20437;-59
2023/08/27 06:49:49;;;;;;;10.90;8.80;;;15.20;99.90;;;;;;4967584;28;20043;-60
2023/08/27 06:52:15;;;;;;;10.13;8.88;;;15.10;99.90;;;;;;4967277;28;20063;-63
2023/08/27 06:54:40;;;;;;;9.95;9.00;;;15.10;99.90;;;;;;4980855;28;20043;-63
2023/08/27 06:57:06;;;;;;;10.43;8.70;;;14.90;99.90;;;;;;4978863;28;20817;-62
2023/08/27 06:59:32;;;;;;;10.07;8.85;;;15.00;99.90;;;;;;4966478;28;20086;-55
2023/08/27 07:01:57;;;;;;;9.15;8.23;;;14.90;99.90;;;;;;4968764;28;20058;-58
2023/08/27 07:04:23;;;;;;;11.27;8.57;;;14.90;99.90;;;;;;4967746;28;20061;-62
2023/08/27 07:06:49;;;;;;;10.10;8.02;;;14.80;99.90;;;;;;4966771;28;20061;-63
2023/08/27 07:09:14;;;;;;;10.40;8.63;;;14.70;99.90;;;;;;4967629;28;20043;-60
2023/08/27 07:11:40;;;;;;;10.40;8.18;;;14.70;99.90;;;;;;4967019;28;20046;-58
2023/08/27 07:14:06;;;;;;;9.35;8.45;;;14.60;99.90;;;;;;4967918;28;20101;-62
2023/08/27 07:16:31;;;;;;;10.25;8.30;;;14.50;99.90;;;;;;4966320;28;20493;-65
2023/08/27 07:18:57;;;;;;;10.25;8.18;;;14.50;99.90;;;;;;4965529;28;20053;-63
2023/08/27 07:21:22;;;;;;;9.57;8.57;;;14.50;99.90;;;;;;4966089;28;20049;-59
2023/08/27 07:23:48;;;;;;;10.07;8.65;;;14.50;99.90;;;;;;4966156;28;20081;-58
2023/08/27 07:26:14;;;;;;;10.25;8.85;;;14.40;99.90;;;;;;4973447;28;20101;-65
2023/08/27 07:28:39;;;;;;;9.30;8.32;;;14.40;99.90;;;;;;4974372;28;20133;-62
2023/08/27 07:31:05;;;;;;;12.15;8.15;;;14.30;99.90;;;;;;4967980;28;20047;-59
2023/08/27 07:33:32;;;;;;;9.13;7.07;;;14.30;99.90;;;;;;4976167;28;20050;-56
2023/08/27 07:35:57;;;;;;;8.25;6.85;;;14.20;99.90;;;;;;4967729;28;20046;-63
2023/08/27 07:38:26;;;;;;;8.40;6.68;;;14.20;99.90;;;;;;4974048;28;20161;-64
2023/08/27 07:40:52;;;;;;;7.95;6.90;;;14.10;99.90;;;;;;4978359;28;20058;-54
2023/08/27 07:43:18;;;;;;;8.55;6.45;;;14.10;99.90;;;;;;4986574;28;20122;-64
2023/08/27 07:45:43;;;;;;;11.00;6.72;;;14.10;99.90;;;;;;4985911;28;20053;-62
2023/08/27 07:48:09;;;;;;;7.38;5.68;;;14.10;99.90;;;;;;4986433;28;20093;-57
2023/08/27 07:50:34;;;;;;;7.28;5.85;;;14.10;99.90;;;;;;4986265;28;20085;-65
2023/08/27 07:53:00;;;;;;;7.18;5.72;;;14.10;99.90;;;;;;4986727;28;20441;-54
2023/08/27 07:55:31;;;;;;;8.07;5.80;;;14.10;99.90;;;;;;4982821;28;20116;-62
2023/08/27 07:57:57;;;;;;;8.52;5.70;;;14.10;99.90;;;;;;4979382;28;20050;-63
2023/08/27 08:00:23;;;;;;;7.30;5.13;;;14.40;99.90;;;;;;4983596;28;20452;-55
2023/08/27 08:02:48;;;;;;;7.15;5.07;;;14.20;99.90;;;;;;4975491;28;20042;-61
2023/08/27 08:05:14;;;;;;;6.07;4.90;;;14.30;99.90;;;;;;4978299;28;20042;-67
2023/08/27 08:07:40;;;;;;;5.47;4.53;;;14.40;99.90;;;;;;4985852;28;20069;-67
2023/08/27 08:10:06;;;;;;;6.97;3.60;;;14.50;99.90;;;;;;4978161;28;20057;-66
2023/08/27 08:12:32;;;;;;;5.65;3.30;;;14.50;99.90;;;;;;4985137;28;20383;-62
2023/08/27 08:14:57;;;;;;;4.72;3.10;;;14.60;99.90;;;;;;4970014;28;20043;-60
2023/08/27 08:17:23;;;;;;;6.30;2.80;;;14.90;99.90;;;;;;4985294;28;20049;-68
2023/08/27 08:19:50;;;;;;;2.83;1.90;;;15.10;99.90;;;;;;4985410;28;20109;-63
2023/08/27 08:22:16;;;;;;;4.05;1.85;;;15.20;99.90;;;;;;4986146;28;20053;-66
2023/08/27 08:24:42;;;;;;;3.45;1.83;;;15.50;99.90;;;;;;4977622;28;20746;-61
2023/08/27 08:27:07;;;;;;;2.67;1.50;;;15.90;99.90;;;;;;4984137;28;20086;-62
2023/08/27 08:29:33;;;;;;;2.78;1.20;;;16.40;99.90;;;;;;4984087;28;20054;-66
2023/08/27 08:31:59;;;;;;;3.08;1.20;;;16.60;99.90;;;;;;4984552;28;20053;-60
2023/08/27 08:34:28;;;;;;;3.13;1.00;;;16.90;99.90;;;;;;4980530;28;20046;-61
2023/08/27 08:36:54;;;;;;;2.70;0.93;;;16.90;99.90;;;;;;4971641;28;20658;-62
2023/08/27 08:39:20;;;;;;;1.70;0.85;;;17.00;99.90;;;;;;4981029;28;20042;-56
2023/08/27 08:42:08;;;;;;;2.35;0.93;;;17.10;99.90;;;;;;4980535;28;20540;-56
2023/08/27 08:45:15;;;;;;;1.40;0.90;;;17.20;99.90;;;;;;4984482;28;20057;-61
2023/08/27 08:47:43;;;;;;;1.70;0.77;;;17.30;99.90;;;;;;4984190;28;20142;-62
2023/08/27 08:50:11;;;;;;;1.75;0.90;;;17.20;99.90;;;;;;4968342;28;20059;-56
2023/08/27 08:52:39;;;;;;;2.63;1.02;;;17.20;99.90;;;;;;4965575;28;20042;-65
2023/08/27 08:55:12;;;;;;;2.92;1.20;;;17.20;99.90;;;;;;4980638;28;20074;-63
2023/08/27 08:57:49;;;;;;;3.67;1.55;;;17.40;99.90;;;;;;4983842;28;20065;-63
2023/08/27 09:00:16;;;;;;;1.92;1.20;;;17.60;99.90;;;;;;4981690;28;20123;-57
2023/08/27 09:02:42;;;;;;;2.53;1.20;;;17.60;99.90;;;;;;4983888;28;20031;-62
2023/08/27 09:05:10;;;;;;;3.53;1.42;;;17.60;99.90;;;;;;4980723;28;20061;-59
2023/08/27 09:07:38;;;;;;;3.08;1.60;;;17.70;99.90;;;;;;4970628;28;20058;-61
2023/08/27 09:10:05;;;;;;;1.42;0.93;;;17.90;99.90;;;;;;4981780;28;20034;-59
2023/08/27 09:12:30;;;;;;;2.25;1.13;;;18.00;99.90;;;;;;4983391;28;20509;-64
2023/08/27 09:14:58;;;;;;;2.00;1.10;;;18.00;99.90;;;;;;4984061;28;20038;-60
2023/08/27 09:17:23;;;;;;;2.22;0.90;;;18.10;99.90;;;;;;4982642;28;20066;-55
2023/08/27 09:19:51;;;;;;;1.85;0.88;;;18.20;99.90;;;;;;4983186;28;20042;-56
2023/08/27 09:22:18;;;;;;;4.60;1.38;;;18.40;99.90;;;;;;4979672;28;20082;-59
2023/08/27 09:24:44;;;;;;;2.42;1.05;;;18.50;99.90;;;;;;4988554;28;20104;-52
2023/08/27 09:27:11;;;;;;;1.70;1.00;;;18.60;99.90;;;;;;4981866;28;20233;-62
2023/08/27 09:29:37;;;;;;;3.03;1.23;;;18.60;99.90;;;;;;4984967;28;20104;-62
2023/08/27 09:32:04;;;;;;;3.72;1.88;;;18.70;99.90;;;;;;4987126;28;20057;-58
2023/08/27 09:34:37;;;;;;;3.72;1.20;;;18.80;99.90;;;;;;4986692;28;20054;-55
2023/08/27 09:37:03;;;;;;;3.75;1.45;;;18.80;99.90;;;;;;4988023;28;20472;-60
2023/08/27 09:39:30;;;;;;;2.67;1.40;;;18.80;99.90;;;;;;4982164;28;20043;-56
2023/08/27 09:41:59;;;;;;;3.03;1.50;;;18.80;99.90;;;;;;4967549;28;20062;-53
2023/08/27 09:44:25;;;;;;;2.47;1.20;;;19.00;99.90;;;;;;4967982;28;20050;-57
2023/08/27 09:46:51;;;;;;;4.57;1.45;;;19.00;99.90;;;;;;4967206;28;20073;-61
2023/08/27 09:49:17;;;;;;;4.90;1.50;;;19.00;99.90;;;;;;4967727;28;20055;-60
2023/08/27 09:51:43;;;;;;;3.00;1.40;;;19.00;99.90;;;;;;4999365;28;20763;-62
2023/08/27 09:54:19;;;;;;;6.20;1.75;;;19.20;99.90;;;;;;4991581;28;20054;-60
2023/08/27 09:56:50;;;;;;;2.95;1.60;;;19.40;99.90;;;;;;4958320;28;20050;-54
2023/08/27 09:59:17;;;;;;;3.38;1.58;;;19.50;99.90;;;;;;4967211;28;20043;-62
2023/08/27 10:01:47;;;;;;;3.38;1.60;;;19.50;99.90;;;;;;4982954;28;20536;-60
2023/08/27 10:04:13;;;;;;;3.22;1.50;;;19.60;99.90;;;;;;4978227;28;20058;-58
2023/08/27 10:06:39;;;;;;;2.08;1.23;;;19.60;99.90;;;;;;4968579;28;20070;-60
2023/08/27 10:09:05;;;;;;;3.85;1.50;;;19.80;99.90;;;;;;4985604;28;20069;-61
2023/08/27 10:11:32;;;;;;;3.60;1.60;;;19.80;99.90;;;;;;4971534;28;20039;-59
2023/08/27 10:13:58;;;;;;;3.03;1.55;;;19.70;99.90;;;;;;4967320;28;20062;-56
2023/08/27 10:16:28;;;;;;;3.38;1.75;;;19.60;99.90;;;;;;4969049;28;20102;-57
2023/08/27 10:18:54;;;;;;;3.15;1.30;;;19.80;99.90;;;;;;4968774;28;20049;-60
2023/08/27 10:21:20;;;;;;;3.60;1.70;;;19.90;99.90;;;;;;4986560;28;20050;-61
2023/08/27 10:23:46;;;;;;;5.68;2.08;;;19.80;99.90;;;;;;4971145;28;20034;-61
2023/08/27 10:26:14;;;;;;;4.72;1.60;;;19.70;99.90;;;;;;4969042;28;20047;-59
2023/08/27 10:28:39;;;;;;;4.82;1.98;;;19.70;99.90;;;;;;4968522;28;20046;-58
2023/08/27 10:31:05;;;;;;;3.75;1.60;;;19.70;99.90;;;;;;4968316;28;20051;-59
2023/08/27 10:33:31;;;;;;;4.10;2.10;;;19.40;99.90;;;;;;4970159;28;20050;-55
2023/08/27 10:36:01;;;;;;;5.68;1.90;;;19.40;99.90;;;;;;4987251;28;20046;-62
2023/08/27 10:38:29;;;;;;;3.35;1.70;;;19.30;99.90;;;;;;4986722;28;20128;-61
2023/08/27 10:40:55;;;;;;;4.13;1.67;;;19.40;99.90;;;;;;4987704;28;20054;-61
2023/08/27 10:43:21;;;;;;;4.63;1.60;;;19.60;99.90;;;;;;4987775;28;20046;-62
2023/08/27 10:45:48;;;;;;;2.72;1.60;;;19.80;99.90;;;;;;4987127;28;20413;-59
2023/08/27 10:48:20;;;;;;;2.90;1.70;;;20.10;99.90;;;;;;4986739;28;20052;-57
2023/08/27 10:50:58;;;;;;;2.92;1.60;;;20.20;99.90;;;;;;4987200;28;20042;-57
2023/08/27 10:53:24;;;;;;;3.55;1.77;;;20.20;99.90;;;;;;4985951;28;20053;-60
2023/08/27 10:55:53;;;;;;;4.07;1.90;;;20.10;99.90;;;;;;4979937;28;20418;-62
2023/08/27 10:58:23;;;;;;;4.40;1.80;;;20.10;99.90;;;;;;4972190;28;20054;-54
2023/08/27 11:01:13;;;;;;;3.95;1.90;;;20.20;99.90;;;;;;4975626;28;20401;-55
2023/08/27 11:04:03;;;;;;;3.00;1.98;;;20.30;99.90;;;;;;4978892;28;20054;-59
2023/08/27 11:06:46;;;;;;;4.45;2.22;;;20.50;99.90;;;;;;4958675;28;20054;-60
2023/08/27 11:09:27;;;;;;;3.10;1.90;;;20.60;99.90;;;;;;4966167;28;20043;-60
2023/08/27 11:12:00;;;;;;;3.83;1.85;;;20.40;99.90;;;;;;4966818;28;20137;-59
2023/08/27 11:14:27;;;;;;;3.03;1.80;;;20.20;99.90;;;;;;4966682;28;20058;-61
2023/08/27 11:16:58;;;;;;;4.15;2.08;;;20.10;99.90;;;;;;4981003;28;20046;-57
2023/08/27 11:19:37;;;;;;;4.03;1.80;;;20.00;99.90;;;;;;4965745;28;20129;-54
2023/08/27 11:22:17;;;;;;;3.13;1.85;;;19.70;99.90;;;;;;4965362;28;20082;-58
2023/08/27 11:24:48;;;;;;;4.38;2.25;;;19.60;99.90;;;;;;4965632;28;20053;-60
2023/08/27 11:27:21;;;;;;;3.33;1.90;;;19.60;99.90;;;;;;4964984;28;20047;-53
2023/08/27 11:29:51;;;;;;;4.47;1.63;;;19.60;99.90;;;;;;4984902;28;20081;-59
2023/08/27 11:32:17;;;;;;;3.75;2.10;;;19.50;99.90;;;;;;4984333;28;20049;-56
2023/08/27 11:34:45;;;;;;;4.35;1.98;;;19.40;99.90;;;;;;4971814;28;20046;-57
2023/08/27 11:37:11;;;;;;;3.53;1.70;;;19.30;99.90;;;;;;4977799;28;20120;-56
2023/08/27 11:39:39;;;;;;;4.68;1.88;;;19.20;99.90;;;;;;4985914;28;20042;-61
2023/08/27 11:42:10;;;;;;;4.15;2.47;;;19.20;99.90;;;;;;4987294;28;20108;-63
2023/08/27 11:44:44;;;;;;;4.53;2.45;;;19.20;99.90;;;;;;4986593;28;20057;-65
2023/08/27 11:47:10;;;;;;;6.95;2.35;;;18.90;99.90;;;;;;4986862;28;20046;-54
2023/08/27 11:49:35;;;;;;;6.68;2.88;;;18.50;99.90;;;;;;4986992;28;20042;-56
2023/08/27 11:52:02;;;;;;;5.43;1.95;;;18.20;99.90;;;;;;4975240;28;20039;-58
2023/08/27 11:54:31;;;;;;;6.03;2.60;;;18.00;99.90;;;;;;4985469;28;20149;-60
2023/08/27 11:56:58;;;;;;;4.47;2.10;;;17.60;99.90;;;;;;4983494;28;20062;-59
2023/08/27 11:59:27;;;;;;;4.45;1.95;;;17.40;99.90;;;;;;4985547;28;20163;-60
2023/08/27 12:01:54;;;;;;;3.65;1.90;;;17.30;99.90;;;;;;4985581;28;20042;-59
2023/08/27 12:04:20;;;;;;;5.10;2.22;;;17.00;99.90;;;;;;4979412;28;20042;-61
2023/08/27 12:06:56;;;;;;;4.20;2.30;;;16.70;99.90;;;;;;5001173;28;20126;-60
2023/08/27 12:09:27;;;;;;;4.25;2.22;;;16.60;99.90;;;;;;5005000;28;20177;-61
2023/08/27 12:11:54;;;;;;;3.75;1.98;;;16.30;99.90;;;;;;4988347;28;20532;-62
2023/08/27 12:14:25;;;;;;;3.13;1.83;;;15.90;99.90;;;;;;4985149;28;20434;-59
2023/08/27 12:16:51;;;;;;;3.30;1.92;;;15.80;99.90;;;;;;4985640;28;20058;-55
2023/08/27 12:19:22;;;;;;;3.67;1.88;;;15.60;99.90;;;;;;4985412;28;20971;-65
2023/08/27 12:21:57;;;;;;;3.60;1.70;;;15.50;99.90;;;;;;4984175;28;20173;-65
2023/08/27 12:24:29;;;;;;;4.43;1.92;;;15.50;99.90;;;;;;4985252;28;20138;-62
2023/08/27 12:27:06;;;;;;;4.00;1.98;;;15.50;99.90;;;;;;4984215;28;20042;-60
2023/08/27 12:29:41;;;;;;;2.50;1.42;;;15.70;99.90;;;;;;4985321;28;20049;-65
2023/08/27 12:32:08;;;;;;;4.55;1.55;;;15.80;99.90;;;;;;4985577;28;20038;-59
2023/08/27 12:34:38;;;;;;;3.60;1.40;;;15.90;99.90;;;;;;4985085;28;20124;-57
2023/08/27 12:37:05;;;;;;;4.93;1.60;;;15.90;99.90;;;;;;4999068;28;20061;-60